createdAt,value
2018-01-24T00:00:25.509Z,0
2018-01-24T00:01:25.497Z,0
2018-01-24T00:02:25.706Z,0
2018-01-24T00:03:25.690Z,0
2018-01-24T00:04:25.425Z,0
2018-01-24T00:05:25.648Z,0
2018-01-24T00:06:25.615Z,0
2018-01-24T00:07:25.586Z,0
2018-01-24T00:08:25.564Z,0
2018-01-24T00:09:25.537Z,0
2018-01-24T00:10:25.512Z,0
2018-01-24T00:11:25.491Z,0
2018-01-24T00:12:25.461Z,0
2018-01-24T00:13:25.435Z,0
2018-01-24T00:14:25.411Z,0
2018-01-24T00:15:25.145Z,0
2018-01-24T00:16:25.375Z,0
2018-01-24T00:17:24.850Z,0
2018-01-24T00:18:25.314Z,0
2018-01-24T00:19:25.056Z,0
2018-01-24T00:20:24.775Z,0
2018-01-24T00:21:25.252Z,0
2018-01-24T00:22:25.218Z,0
2018-01-24T00:23:24.954Z,0
2018-01-24T00:24:24.925Z,0
2018-01-24T00:25:25.146Z,0
2018-01-24T00:26:25.117Z,0
2018-01-24T00:27:25.099Z,0
2018-01-24T00:28:24.827Z,0
2018-01-24T00:29:24.804Z,0
2018-01-24T00:30:24.789Z,0
2018-01-24T00:31:24.771Z,0
2018-01-24T00:32:24.978Z,0
2018-01-24T00:33:24.712Z,0
2018-01-24T00:34:24.936Z,0
2018-01-24T00:35:24.906Z,0
2018-01-24T00:36:24.633Z,0
2018-01-24T00:37:24.362Z,0
2018-01-24T00:38:24.583Z,0
2018-01-24T00:39:24.805Z,0
2018-01-24T00:40:24.780Z,0
2018-01-24T00:41:24.526Z,0
2018-01-24T00:42:24.737Z,0
2018-01-24T00:43:24.712Z,0
2018-01-24T00:44:24.444Z,0
2018-01-24T00:45:24.663Z,0
2018-01-24T00:46:24.493Z,0
2018-01-24T00:47:24.618Z,0
2018-01-24T00:48:24.583Z,0
2018-01-24T00:49:24.560Z,0
2018-01-24T00:50:24.295Z,0
2018-01-24T00:51:24.520Z,0
2018-01-24T00:52:24.248Z,0
2018-01-24T00:53:24.550Z,0
2018-01-24T00:54:24.440Z,0
2018-01-24T00:55:24.173Z,0
2018-01-24T00:56:24.388Z,0
2018-01-24T00:57:24.367Z,0
2018-01-24T00:58:24.342Z,0
2018-01-24T00:59:23.826Z,0
2018-01-24T01:00:24.299Z,0
2018-01-24T01:01:24.023Z,0
2018-01-24T01:02:24.248Z,0
2018-01-24T01:03:24.221Z,0
2018-01-24T01:04:24.216Z,0
2018-01-24T01:05:24.179Z,0
2018-01-24T01:06:24.161Z,0
2018-01-24T01:07:24.131Z,0
2018-01-24T01:08:23.612Z,0
2018-01-24T01:09:24.082Z,0
2018-01-24T01:10:24.069Z,0
2018-01-24T01:11:24.130Z,0
2018-01-24T01:12:24.006Z,0
2018-01-24T01:13:23.734Z,0
2018-01-24T01:14:23.463Z,0
2018-01-24T01:15:23.442Z,0
2018-01-24T01:16:23.912Z,0
2018-01-24T01:17:23.896Z,0
2018-01-24T01:18:23.620Z,0
2018-01-24T01:19:23.595Z,0
2018-01-24T01:20:22.834Z,0
2018-01-24T01:21:23.070Z,0
2018-01-24T01:22:23.771Z,0
2018-01-24T01:23:23.498Z,0
2018-01-24T01:24:23.720Z,0
2018-01-24T01:25:23.452Z,0
2018-01-24T01:26:23.681Z,0
2018-01-24T01:27:23.666Z,0
2018-01-24T01:28:23.666Z,0
2018-01-24T01:29:23.358Z,0
2018-01-24T01:30:23.577Z,0
2018-01-24T01:31:23.556Z,0
2018-01-24T01:32:23.538Z,0
2018-01-24T01:33:23.270Z,0
2018-01-24T01:34:23.504Z,0
2018-01-24T01:35:23.213Z,0
2018-01-24T01:36:23.201Z,0
2018-01-24T01:37:23.167Z,0
2018-01-24T01:38:23.389Z,0
2018-01-24T01:39:23.120Z,0
2018-01-24T01:40:23.094Z,0
2018-01-24T01:41:23.317Z,0
2018-01-24T01:42:23.291Z,0
2018-01-24T01:43:23.268Z,0
2018-01-24T01:44:23.006Z,0
2018-01-24T01:45:22.973Z,0
2018-01-24T01:46:23.194Z,0
2018-01-24T01:47:22.931Z,0
2018-01-24T01:48:23.156Z,0
2018-01-24T01:49:22.893Z,0
2018-01-24T01:50:23.105Z,0
2018-01-24T01:51:23.085Z,0
2018-01-24T01:52:23.152Z,0
2018-01-24T01:53:23.035Z,0
2018-01-24T01:54:23.020Z,0
2018-01-24T01:55:22.516Z,0
2018-01-24T01:56:22.719Z,0
2018-01-24T01:57:22.943Z,0
2018-01-24T01:58:22.670Z,0
2018-01-24T01:59:22.656Z,0
2018-01-24T02:00:22.624Z,0
2018-01-24T02:01:22.609Z,0
2018-01-24T02:02:22.431Z,0
2018-01-24T02:03:22.555Z,0
2018-01-24T02:04:22.780Z,0
2018-01-24T02:05:22.508Z,0
2018-01-24T02:06:22.242Z,0
2018-01-24T02:07:22.457Z,0
2018-01-24T02:08:22.691Z,0
2018-01-24T02:09:22.169Z,0
2018-01-24T02:10:22.384Z,0
2018-01-24T02:11:22.610Z,0
2018-01-24T02:12:22.731Z,0
2018-01-24T02:13:22.564Z,0
2018-01-24T02:14:22.540Z,0
2018-01-24T02:15:22.513Z,0
2018-01-24T02:16:22.498Z,0
2018-01-24T02:17:22.565Z,0
2018-01-24T02:18:22.198Z,0
2018-01-24T02:19:22.175Z,0
2018-01-24T02:20:22.410Z,0
2018-01-24T02:21:22.375Z,0
2018-01-24T02:22:22.117Z,0
2018-01-24T02:23:22.329Z,0
2018-01-24T02:24:22.067Z,0
2018-01-24T02:25:22.284Z,0
2018-01-24T02:26:22.261Z,0
2018-01-24T02:27:22.237Z,0
2018-01-24T02:28:21.976Z,0
2018-01-24T02:29:21.956Z,0
2018-01-24T02:30:21.922Z,0
2018-01-24T02:31:22.145Z,0
2018-01-24T02:32:22.229Z,0
2018-01-24T02:33:21.614Z,0
2018-01-24T02:34:22.080Z,0
2018-01-24T02:35:21.574Z,0
2018-01-24T02:36:22.041Z,0
2018-01-24T02:37:22.105Z,0
2018-01-24T02:38:21.742Z,0
2018-01-24T02:39:21.972Z,0
2018-01-24T02:40:21.446Z,0
2018-01-24T02:41:21.421Z,0
2018-01-24T02:42:21.892Z,0
2018-01-24T02:43:21.868Z,0
2018-01-24T02:44:21.877Z,0
2018-01-24T02:45:21.573Z,0
2018-01-24T02:46:21.559Z,0
2018-01-24T02:47:21.774Z,0
2018-01-24T02:48:21.502Z,0
2018-01-24T02:49:21.732Z,0
2018-01-24T02:50:21.706Z,0
2018-01-24T02:51:21.684Z,0
2018-01-24T02:52:21.651Z,0
2018-01-24T02:53:21.393Z,0
2018-01-24T02:54:21.658Z,0
2018-01-24T02:55:21.092Z,0
2018-01-24T02:56:21.575Z,0
2018-01-24T02:57:21.640Z,0
2018-01-24T02:58:21.520Z,0
2018-01-24T02:59:21.242Z,0
2018-01-24T03:00:21.580Z,0
2018-01-24T03:01:21.457Z,0
2018-01-24T03:02:21.424Z,0
2018-01-24T03:03:21.145Z,0
2018-01-24T03:04:20.888Z,0
2018-01-24T03:05:21.111Z,0
2018-01-24T03:06:21.085Z,0
2018-01-24T03:07:20.814Z,0
2018-01-24T03:08:21.293Z,0
2018-01-24T03:09:21.015Z,0
2018-01-24T03:10:21.242Z,0
2018-01-24T03:11:21.014Z,0
2018-01-24T03:12:21.183Z,0
2018-01-24T03:13:20.667Z,0
2018-01-24T03:14:20.646Z,0
2018-01-24T03:15:20.862Z,0
2018-01-24T03:16:20.841Z,0
2018-01-24T03:17:20.820Z,0
2018-01-24T03:18:21.037Z,0
2018-01-24T03:19:21.023Z,0
2018-01-24T03:20:20.750Z,0
2018-01-24T03:21:20.976Z,0
2018-01-24T03:22:20.702Z,0
2018-01-24T03:23:21.034Z,0
2018-01-24T03:24:20.950Z,0
2018-01-24T03:25:20.392Z,0
2018-01-24T03:26:20.854Z,0
2018-01-24T03:27:20.578Z,0
2018-01-24T03:28:20.808Z,0
2018-01-24T03:29:20.539Z,0
2018-01-24T03:30:20.521Z,0
2018-01-24T03:31:20.742Z,0
2018-01-24T03:32:20.472Z,0
2018-01-24T03:33:20.192Z,0
2018-01-24T03:34:20.174Z,0
2018-01-24T03:35:20.400Z,0
2018-01-24T03:36:20.387Z,0
2018-01-24T03:37:20.343Z,0
2018-01-24T03:38:20.572Z,0
2018-01-24T03:39:20.552Z,0
2018-01-24T03:40:20.530Z,0
2018-01-24T03:41:20.497Z,0
2018-01-24T03:42:20.472Z,0
2018-01-24T03:43:20.455Z,0
2018-01-24T03:44:20.188Z,0
2018-01-24T03:45:20.210Z,0
2018-01-24T03:46:20.185Z,0
2018-01-24T03:47:20.414Z,0
2018-01-24T03:48:20.199Z,0
2018-01-24T03:49:20.063Z,0
2018-01-24T03:50:20.301Z,0
2018-01-24T03:51:20.260Z,0
2018-01-24T03:52:20.069Z,0
2018-01-24T03:53:20.222Z,0
2018-01-24T03:54:19.453Z,0
2018-01-24T03:55:20.212Z,0
2018-01-24T03:56:19.902Z,0
2018-01-24T03:57:19.631Z,0
2018-01-24T03:58:19.903Z,0
2018-01-24T03:59:20.087Z,0
2018-01-24T04:00:20.063Z,0
2018-01-24T04:01:19.532Z,0
2018-01-24T04:02:19.764Z,0
2018-01-24T04:03:19.976Z,0
2018-01-24T04:04:19.958Z,0
2018-01-24T04:05:19.927Z,0
2018-01-24T04:06:19.982Z,0
2018-01-24T04:07:19.397Z,0
2018-01-24T04:08:19.860Z,0
2018-01-24T04:09:19.845Z,0
2018-01-24T04:10:19.570Z,0
2018-01-24T04:11:19.542Z,0
2018-01-24T04:12:19.767Z,0
2018-01-24T04:13:19.752Z,0
2018-01-24T04:14:19.230Z,0
2018-01-24T04:15:19.449Z,0
2018-01-24T04:16:19.675Z,0
2018-01-24T04:17:19.399Z,0
2018-01-24T04:18:19.388Z,0
2018-01-24T04:19:19.357Z,0
2018-01-24T04:20:19.577Z,0
2018-01-24T04:21:19.312Z,0
2018-01-24T04:22:19.048Z,0
2018-01-24T04:23:19.509Z,0
2018-01-24T04:24:19.246Z,0
2018-01-24T04:25:19.469Z,0
2018-01-24T04:26:19.197Z,0
2018-01-24T04:27:19.421Z,0
2018-01-24T04:28:19.397Z,0
2018-01-24T04:29:19.376Z,0
2018-01-24T04:30:19.358Z,0
2018-01-24T04:31:19.326Z,0
2018-01-24T04:32:19.067Z,0
2018-01-24T04:33:19.277Z,0
2018-01-24T04:34:19.014Z,0
2018-01-24T04:35:18.498Z,0
2018-01-24T04:36:19.206Z,0
2018-01-24T04:37:19.184Z,0
2018-01-24T04:38:19.169Z,0
2018-01-24T04:39:19.134Z,0
2018-01-24T04:40:18.871Z,0
2018-01-24T04:41:19.115Z,0
2018-01-24T04:42:19.070Z,0
2018-01-24T04:43:18.560Z,0
2018-01-24T04:44:18.777Z,0
2018-01-24T04:45:19.003Z,0
2018-01-24T04:46:18.726Z,0
2018-01-24T04:47:18.970Z,0
2018-01-24T04:48:18.740Z,0
2018-01-24T04:49:18.906Z,0
2018-01-24T04:50:18.882Z,0
2018-01-24T04:51:18.859Z,0
2018-01-24T04:52:18.588Z,0
2018-01-24T04:53:18.567Z,0
2018-01-24T04:54:18.539Z,0
2018-01-24T04:55:18.521Z,0
2018-01-24T04:56:18.242Z,0
2018-01-24T04:57:18.714Z,0
2018-01-24T04:58:18.454Z,0
2018-01-24T04:59:18.835Z,0
2018-01-24T05:00:18.161Z,0
2018-01-24T05:01:18.636Z,0
2018-01-24T05:02:18.599Z,0
2018-01-24T05:03:18.332Z,0
2018-01-24T05:04:18.312Z,0
2018-01-24T05:05:18.288Z,0
2018-01-24T05:06:18.509Z,0
2018-01-24T05:07:18.242Z,0
2018-01-24T05:08:17.971Z,0
2018-01-24T05:09:18.195Z,0
2018-01-24T05:10:18.420Z,0
2018-01-24T05:11:18.395Z,0
2018-01-24T05:12:18.366Z,0
2018-01-24T05:13:18.356Z,0
2018-01-24T05:14:18.075Z,0
2018-01-24T05:15:18.310Z,0
2018-01-24T05:16:18.281Z,0
2018-01-24T05:17:18.256Z,0
2018-01-24T05:18:17.979Z,0
2018-01-24T05:19:18.209Z,0
2018-01-24T05:20:17.944Z,0
2018-01-24T05:21:18.217Z,0
2018-01-24T05:22:18.136Z,0
2018-01-24T05:23:17.870Z,0
2018-01-24T05:24:18.086Z,0
2018-01-24T05:25:18.079Z,0
2018-01-24T05:26:17.564Z,0
2018-01-24T05:27:17.782Z,0
2018-01-24T05:28:18.007Z,0
2018-01-24T05:29:17.732Z,0
2018-01-24T05:30:17.949Z,0
2018-01-24T05:31:17.687Z,0
2018-01-24T05:32:17.414Z,0
2018-01-24T05:33:17.396Z,0
2018-01-24T05:34:17.861Z,0
2018-01-24T05:35:17.839Z,0
2018-01-24T05:36:17.817Z,0
2018-01-24T05:37:17.541Z,0
2018-01-24T05:38:17.767Z,0
2018-01-24T05:39:17.746Z,0
2018-01-24T05:40:17.730Z,0
2018-01-24T05:41:17.455Z,0
2018-01-24T05:42:17.673Z,0
2018-01-24T05:43:17.657Z,0
2018-01-24T05:44:17.142Z,0
2018-01-24T05:45:17.366Z,0
2018-01-24T05:46:17.343Z,0
2018-01-24T05:47:17.312Z,0
2018-01-24T05:48:17.295Z,0
2018-01-24T05:49:17.525Z,0
2018-01-24T05:50:17.248Z,0
2018-01-24T05:51:17.469Z,0
2018-01-24T05:52:17.449Z,0
2018-01-24T05:53:17.420Z,0
2018-01-24T05:54:17.408Z,0
2018-01-24T05:55:17.187Z,0
2018-01-24T05:56:17.359Z,0
2018-01-24T05:57:17.341Z,0
2018-01-24T05:58:17.301Z,0
2018-01-24T05:59:17.043Z,0
2018-01-24T06:00:17.025Z,0
2018-01-24T06:01:16.754Z,0
2018-01-24T06:02:16.990Z,0
2018-01-24T06:03:17.196Z,0
2018-01-24T06:04:17.174Z,0
2018-01-24T06:05:16.952Z,0
2018-01-24T06:06:16.880Z,0
2018-01-24T06:07:16.860Z,0
2018-01-24T06:08:16.591Z,0
2018-01-24T06:09:16.814Z,0
2018-01-24T06:10:17.044Z,0
2018-01-24T06:11:17.008Z,0
2018-01-24T06:12:16.991Z,0
2018-01-24T06:13:16.964Z,0
2018-01-24T06:14:16.705Z,0
2018-01-24T06:15:16.930Z,0
2018-01-24T06:16:16.704Z,0
2018-01-24T06:17:16.629Z,0
2018-01-24T06:18:16.854Z,0
2018-01-24T06:19:16.587Z,0
2018-01-24T06:20:16.833Z,0
2018-01-24T06:21:16.538Z,0
2018-01-24T06:22:16.517Z,0
2018-01-24T06:23:16.740Z,0
2018-01-24T06:24:16.713Z,0
2018-01-24T06:25:16.698Z,0
2018-01-24T06:26:16.424Z,0
2018-01-24T06:27:16.402Z,0
2018-01-24T06:28:16.385Z,0
2018-01-24T06:29:16.359Z,0
2018-01-24T06:30:16.086Z,0
2018-01-24T06:31:16.303Z,0
2018-01-24T06:32:16.746Z,0
2018-01-24T06:33:16.263Z,0
2018-01-24T06:34:16.496Z,0
2018-01-24T06:35:16.220Z,0
2018-01-24T06:36:16.439Z,0
2018-01-24T06:37:16.413Z,0
2018-01-24T06:38:16.147Z,0
2018-01-24T06:39:16.378Z,0
2018-01-24T06:40:16.105Z,0
2018-01-24T06:41:16.323Z,0
2018-01-24T06:42:16.307Z,0
2018-01-24T06:43:16.279Z,0
2018-01-24T06:44:16.021Z,0
2018-01-24T06:45:15.987Z,0
2018-01-24T06:46:16.219Z,0
2018-01-24T06:47:16.190Z,0
2018-01-24T06:48:16.216Z,0
2018-01-24T06:49:16.146Z,0
2018-01-24T06:50:16.119Z,0
2018-01-24T06:51:16.096Z,0
2018-01-24T06:52:15.826Z,0
2018-01-24T06:53:16.055Z,0
2018-01-24T06:54:15.784Z,0
2018-01-24T06:55:16.004Z,0
2018-01-24T06:56:15.495Z,0
2018-01-24T06:57:15.964Z,0
2018-01-24T06:58:15.940Z,0
2018-01-24T06:59:15.671Z,0
2018-01-24T07:00:15.649Z,0
2018-01-24T07:01:15.624Z,0
2018-01-24T07:02:15.593Z,0
2018-01-24T07:03:15.584Z,0
2018-01-24T07:04:15.804Z,0
2018-01-24T07:05:15.778Z,0
2018-01-24T07:06:15.761Z,0
2018-01-24T07:07:15.741Z,0
2018-01-24T07:08:15.232Z,0
2018-01-24T07:09:15.734Z,0
2018-01-24T07:10:15.410Z,5
2018-01-24T07:11:15.645Z,5
2018-01-24T07:12:15.618Z,5
2018-01-24T07:13:15.353Z,5
2018-01-24T07:14:15.082Z,5
2018-01-24T07:15:15.060Z,5
2018-01-24T07:16:15.277Z,5
2018-01-24T07:17:15.255Z,5
2018-01-24T07:18:14.985Z,10
2018-01-24T07:19:15.212Z,10
2018-01-24T07:20:15.186Z,10
2018-01-24T07:21:15.161Z,10
2018-01-24T07:22:14.895Z,10
2018-01-24T07:23:15.443Z,10
2018-01-24T07:24:15.342Z,10
2018-01-24T07:25:15.072Z,5
2018-01-24T07:26:15.047Z,5
2018-01-24T07:27:14.784Z,10
2018-01-24T07:28:15.006Z,10
2018-01-24T07:29:14.738Z,10
2018-01-24T07:30:14.959Z,10
2018-01-24T07:31:14.998Z,10
2018-01-24T07:32:15.173Z,10
2018-01-24T07:33:14.887Z,15
2018-01-24T07:34:14.869Z,15
2018-01-24T07:35:15.101Z,15
2018-01-24T07:36:14.575Z,15
2018-01-24T07:37:14.802Z,20
2018-01-24T07:38:14.775Z,20
2018-01-24T07:39:14.759Z,20
2018-01-24T07:40:14.980Z,20
2018-01-24T07:41:14.466Z,25
2018-01-24T07:42:14.932Z,25
2018-01-24T07:43:14.660Z,20
2018-01-24T07:44:14.152Z,25
2018-01-24T07:45:14.681Z,25
2018-01-24T07:46:14.643Z,25
2018-01-24T07:47:14.726Z,25
2018-01-24T07:48:14.802Z,25
2018-01-24T07:49:14.529Z,20
2018-01-24T07:50:14.268Z,30
2018-01-24T07:51:14.244Z,40
2018-01-24T07:52:14.464Z,45
2018-01-24T07:53:14.194Z,50
2018-01-24T07:54:14.671Z,55
2018-01-24T07:55:14.646Z,55
2018-01-24T07:56:14.127Z,50
2018-01-24T07:57:14.603Z,50
2018-01-24T07:58:14.322Z,45
2018-01-24T07:59:14.382Z,45
2018-01-24T08:00:14.971Z,55
2018-01-24T08:01:14.263Z,55
2018-01-24T08:02:14.242Z,55
2018-01-24T08:03:14.239Z,55
2018-01-24T08:04:14.451Z,70
2018-01-24T08:05:14.214Z,65
2018-01-24T08:06:14.403Z,55
2018-01-24T08:07:14.427Z,50
2018-01-24T08:08:14.519Z,50
2018-01-24T08:09:13.591Z,55
2018-01-24T08:10:13.823Z,70
2018-01-24T08:11:14.556Z,65
2018-01-24T08:12:14.421Z,75
2018-01-24T08:13:15.105Z,85
2018-01-24T08:14:13.970Z,95
2018-01-24T08:15:15.388Z,100
2018-01-24T08:16:13.683Z,105
2018-01-24T08:17:13.916Z,105
2018-01-24T08:18:13.883Z,105
2018-01-24T08:19:13.389Z,100
2018-01-24T08:20:13.361Z,115
2018-01-24T08:21:14.064Z,115
2018-01-24T08:22:13.580Z,110
2018-01-24T08:23:14.017Z,105
2018-01-24T08:24:14.082Z,105
2018-01-24T08:25:13.743Z,120
2018-01-24T08:26:13.955Z,115
2018-01-24T08:27:13.932Z,95
2018-01-24T08:28:14.300Z,90
2018-01-24T08:29:15.168Z,105
2018-01-24T08:30:13.623Z,115
2018-01-24T08:31:13.850Z,105
2018-01-24T08:32:14.274Z,125
2018-01-24T08:33:14.050Z,150
2018-01-24T08:34:14.061Z,160
2018-01-24T08:35:13.836Z,165
2018-01-24T08:36:13.544Z,175
2018-01-24T08:37:13.226Z,170
2018-01-24T08:38:13.796Z,155
2018-01-24T08:41:18.711Z,170
2018-01-24T08:41:30.806Z,170
2018-01-24T08:42:32.329Z,165
2018-01-24T08:43:37.009Z,160
2018-01-24T08:44:31.769Z,160
2018-01-24T08:45:30.702Z,160
2018-01-24T08:46:30.032Z,180
2018-01-24T08:47:30.886Z,200
2018-01-24T08:48:30.432Z,210
2018-01-24T08:49:30.809Z,205
2018-01-24T08:50:32.159Z,190
2018-01-24T08:51:31.129Z,195
2018-01-24T08:52:32.156Z,205
2018-01-24T08:53:30.809Z,205
2018-01-24T08:54:30.042Z,195
2018-01-24T08:55:30.132Z,180
2018-01-24T08:56:30.610Z,170
2018-01-24T08:57:30.466Z,175
2018-01-24T08:58:30.155Z,180
2018-01-24T08:59:30.378Z,180
2018-01-24T09:00:30.776Z,175
2018-01-24T09:01:30.760Z,175
2018-01-24T09:02:30.532Z,170
2018-01-24T09:03:30.196Z,210
2018-01-24T09:04:30.322Z,255
2018-01-24T09:05:30.737Z,250
2018-01-24T09:06:34.164Z,245
2018-01-24T09:07:30.497Z,250
2018-01-24T09:08:30.639Z,260
2018-01-24T09:09:31.235Z,275
2018-01-24T09:10:30.143Z,290
2018-01-24T09:11:32.600Z,325
2018-01-24T09:12:32.317Z,330
2018-01-24T09:13:34.507Z,330
2018-01-24T09:14:32.519Z,335
2018-01-24T09:15:34.969Z,325
2018-01-24T09:16:34.651Z,325
2018-01-24T09:17:33.217Z,300
2018-01-24T09:18:32.401Z,285
2018-01-24T09:19:33.064Z,265
2018-01-24T09:20:32.242Z,290
2018-01-24T09:21:32.018Z,325
2018-01-24T09:22:32.965Z,330
2018-01-24T09:23:31.727Z,315
2018-01-24T09:24:34.993Z,350
2018-01-24T09:25:31.637Z,350
2018-01-24T09:26:31.115Z,390
2018-01-24T09:27:35.109Z,385
2018-01-24T09:28:32.136Z,385
2018-01-24T09:29:32.266Z,425
2018-01-24T09:30:32.362Z,455
2018-01-24T09:31:38.289Z,460
2018-01-24T09:32:34.338Z,435
2018-01-24T09:33:30.322Z,430
2018-01-24T09:34:30.409Z,405
2018-01-24T09:35:31.514Z,410
2018-01-24T09:36:31.941Z,400
2018-01-24T09:37:30.793Z,345
2018-01-24T09:38:30.040Z,320
2018-01-24T09:39:31.158Z,345
2018-01-24T09:40:29.502Z,290
2018-01-24T09:41:30.753Z,280
2018-01-24T09:42:30.232Z,280
2018-01-24T09:43:29.624Z,255
2018-01-24T09:44:29.424Z,280
2018-01-24T09:45:31.187Z,290
2018-01-24T09:46:30.378Z,300
2018-01-24T09:47:30.472Z,295
2018-01-24T09:48:30.560Z,280
2018-01-24T09:49:30.656Z,250
2018-01-24T09:50:31.378Z,235
2018-01-24T09:51:30.188Z,275
2018-01-24T09:52:28.747Z,285
2018-01-24T09:53:30.851Z,295
2018-01-24T09:54:31.648Z,285
2018-01-24T09:55:29.455Z,285
2018-01-24T09:56:29.683Z,265
2018-01-24T09:57:30.350Z,300
2018-01-24T09:58:34.115Z,330
2018-01-24T09:59:28.969Z,360
2018-01-24T10:00:27.020Z,390
2018-01-24T10:01:35.006Z,380
2018-01-24T10:02:32.382Z,370
2018-01-24T10:03:37.520Z,375
2018-01-24T10:04:30.154Z,420
2018-01-24T10:05:34.548Z,455
2018-01-24T10:06:29.085Z,465
2018-01-24T10:07:30.038Z,475
2018-01-24T10:08:32.673Z,465
2018-01-24T10:09:31.576Z,460
2018-01-24T10:10:36.469Z,485
2018-01-24T10:11:35.215Z,485
2018-01-24T10:12:32.542Z,500
2018-01-24T10:13:30.036Z,495
2018-01-24T10:14:30.166Z,490
2018-01-24T10:15:38.778Z,520
2018-01-24T10:16:30.217Z,530
2018-01-24T10:17:29.461Z,520
2018-01-24T10:18:31.513Z,535
2018-01-24T10:19:27.038Z,570
2018-01-24T10:20:29.646Z,580
2018-01-24T10:21:27.923Z,590
2018-01-24T10:22:27.440Z,585
2018-01-24T10:23:31.776Z,565
2018-01-24T10:24:31.323Z,555
2018-01-24T10:25:30.765Z,535
2018-01-24T10:26:29.760Z,535
2018-01-24T10:27:29.785Z,535
2018-01-24T10:28:29.054Z,530
2018-01-24T10:29:30.718Z,520
2018-01-24T10:30:29.076Z,540
2018-01-24T10:31:29.457Z,535
2018-01-24T10:32:30.999Z,505
2018-01-24T10:33:31.228Z,465
2018-01-24T10:34:33.245Z,445
2018-01-24T10:35:30.236Z,435
2018-01-24T10:36:28.705Z,445
2018-01-24T10:37:28.915Z,485
2018-01-24T10:38:29.295Z,485
2018-01-24T10:39:29.919Z,470
2018-01-24T10:40:25.750Z,465
2018-01-24T10:41:25.971Z,445
2018-01-24T10:42:25.758Z,435
2018-01-24T10:43:25.687Z,425
2018-01-24T10:44:25.962Z,390
2018-01-24T10:45:25.755Z,335
2018-01-24T10:46:25.396Z,350
2018-01-24T10:47:25.857Z,355
2018-01-24T10:48:25.835Z,320
2018-01-24T10:49:25.333Z,290
2018-01-24T10:50:25.808Z,300
2018-01-24T10:51:25.542Z,300
2018-01-24T10:52:25.773Z,310
2018-01-24T10:53:26.766Z,315
2018-01-24T10:54:25.733Z,295
2018-01-24T10:55:25.715Z,275
2018-01-24T10:56:25.450Z,275
2018-01-24T10:57:25.678Z,285
2018-01-24T10:58:25.196Z,275
2018-01-24T10:59:24.982Z,285
2018-01-24T11:00:26.425Z,275
2018-01-24T11:01:25.352Z,330
2018-01-24T11:02:25.577Z,340
2018-01-24T11:03:25.319Z,345
2018-01-24T11:04:25.551Z,345
2018-01-24T11:05:25.036Z,360
2018-01-24T11:06:25.501Z,350
2018-01-24T11:07:25.483Z,345
2018-01-24T11:08:25.477Z,400
2018-01-24T11:09:25.445Z,450
2018-01-24T11:10:24.985Z,480
2018-01-24T11:11:25.161Z,480
2018-01-24T11:12:24.907Z,450
2018-01-24T11:13:25.384Z,395
2018-01-24T11:14:25.111Z,390
2018-01-24T11:15:25.091Z,400
2018-01-24T11:16:25.316Z,445
2018-01-24T11:17:25.303Z,445
2018-01-24T11:18:24.789Z,365
2018-01-24T11:19:25.079Z,350
2018-01-24T11:20:24.551Z,375
2018-01-24T11:21:24.977Z,390
2018-01-24T11:22:24.970Z,435
2018-01-24T11:23:24.707Z,485
2018-01-24T11:24:25.173Z,475
2018-01-24T11:25:25.151Z,470
2018-01-24T11:26:24.891Z,560
2018-01-24T11:27:25.119Z,620
2018-01-24T11:28:24.723Z,585
2018-01-24T11:29:25.076Z,565
2018-01-24T11:30:25.068Z,575
2018-01-24T11:31:25.042Z,555
2018-01-24T11:32:25.021Z,520
2018-01-24T11:33:25.000Z,515
2018-01-24T11:34:24.998Z,520
2018-01-24T11:35:24.720Z,505
2018-01-24T11:36:24.946Z,480
2018-01-24T11:37:24.932Z,470
2018-01-24T11:38:24.919Z,505
2018-01-24T11:39:24.901Z,515
2018-01-24T11:40:24.711Z,535
2018-01-24T11:41:24.758Z,550
2018-01-24T11:42:24.612Z,575
2018-01-24T11:43:25.138Z,590
2018-01-24T11:44:24.612Z,580
2018-01-24T11:45:24.544Z,565
2018-01-24T11:46:24.773Z,530
2018-01-24T11:47:24.760Z,530
2018-01-24T11:48:24.747Z,515
2018-01-24T11:49:24.607Z,525
2018-01-24T11:50:23.974Z,495
2018-01-24T11:51:24.696Z,480
2018-01-24T11:52:24.685Z,470
2018-01-24T11:53:24.432Z,445
2018-01-24T11:54:24.306Z,465
2018-01-24T11:55:24.620Z,445
2018-01-24T11:56:24.176Z,435
2018-01-24T11:57:24.602Z,430
2018-01-24T11:58:24.325Z,420
2018-01-24T11:59:24.552Z,440
2018-01-24T12:00:24.292Z,420
2018-01-24T12:01:24.517Z,410
2018-01-24T12:02:24.501Z,425
2018-01-24T12:03:24.266Z,430
2018-01-24T12:04:23.731Z,440
2018-01-24T12:05:24.451Z,455
2018-01-24T12:06:24.185Z,460
2018-01-24T12:07:24.422Z,455
2018-01-24T12:08:24.396Z,460
2018-01-24T12:09:24.384Z,480
2018-01-24T12:10:24.357Z,480
2018-01-24T12:11:24.094Z,425
2018-01-24T12:12:24.330Z,415
2018-01-24T12:13:24.406Z,420
2018-01-24T12:14:23.797Z,440
2018-01-24T12:15:24.028Z,445
2018-01-24T12:16:24.005Z,475
2018-01-24T12:17:23.984Z,480
2018-01-24T12:18:24.220Z,480
2018-01-24T12:19:24.203Z,480
2018-01-24T12:20:24.179Z,480
2018-01-24T12:21:24.176Z,480
2018-01-24T12:22:23.904Z,475
2018-01-24T12:23:23.884Z,470
2018-01-24T12:24:23.865Z,505
2018-01-24T12:25:24.098Z,505
2018-01-24T12:26:23.835Z,515
2018-01-24T12:27:24.059Z,520
2018-01-24T12:28:23.795Z,510
2018-01-24T12:29:23.776Z,510
2018-01-24T12:30:23.509Z,500
2018-01-24T12:31:23.989Z,465
2018-01-24T12:32:23.972Z,445
2018-01-24T12:33:23.964Z,475
2018-01-24T12:34:23.944Z,485
2018-01-24T12:35:23.922Z,470
2018-01-24T12:36:23.162Z,460
2018-01-24T12:37:23.887Z,460
2018-01-24T12:38:23.987Z,455
2018-01-24T12:39:23.841Z,440
2018-01-24T12:40:23.877Z,435
2018-01-24T12:41:23.577Z,425
2018-01-24T12:42:23.554Z,415
2018-01-24T12:43:23.775Z,405
2018-01-24T12:44:23.760Z,415
2018-01-24T12:45:23.805Z,460
2018-01-24T12:46:23.723Z,500
2018-01-24T12:47:23.464Z,510
2018-01-24T12:48:23.687Z,525
2018-01-24T12:49:23.426Z,520
2018-01-24T12:50:23.654Z,510
2018-01-24T12:51:23.392Z,495
2018-01-24T12:52:23.625Z,485
2018-01-24T12:53:23.211Z,455
2018-01-24T12:54:23.344Z,495
2018-01-24T12:55:23.567Z,490
2018-01-24T12:56:23.315Z,495
2018-01-24T12:57:23.577Z,475
2018-01-24T12:58:23.275Z,460
2018-01-24T12:59:23.496Z,455
2018-01-24T13:00:23.413Z,430
2018-01-24T13:01:23.219Z,430
2018-01-24T13:02:23.204Z,445
2018-01-24T13:03:23.187Z,455
2018-01-24T13:04:23.434Z,455
2018-01-24T13:05:22.910Z,460
2018-01-24T13:06:22.893Z,470
2018-01-24T13:07:23.113Z,485
2018-01-24T13:08:22.876Z,495
2018-01-24T13:09:22.935Z,490
2018-01-24T13:10:23.336Z,485
2018-01-24T13:11:23.129Z,485
2018-01-24T13:12:23.096Z,470
2018-01-24T13:13:23.394Z,485
2018-01-24T13:14:23.448Z,475
2018-01-24T13:15:23.433Z,470
2018-01-24T13:16:22.989Z,465
2018-01-24T13:17:22.943Z,460
2018-01-24T13:18:22.983Z,465
2018-01-24T13:19:23.163Z,455
2018-01-24T13:20:23.192Z,455
2018-01-24T13:21:22.646Z,455
2018-01-24T13:22:22.376Z,450
2018-01-24T13:23:22.855Z,445
2018-01-24T13:24:23.070Z,445
2018-01-24T13:25:23.064Z,440
2018-01-24T13:26:23.030Z,435
2018-01-24T13:27:23.014Z,435
2018-01-24T13:28:22.992Z,425
2018-01-24T13:29:22.742Z,385
2018-01-24T13:30:23.016Z,355
2018-01-24T13:31:22.690Z,350
2018-01-24T13:32:22.677Z,325
2018-01-24T13:33:22.902Z,315
2018-01-24T13:34:22.634Z,330
2018-01-24T13:35:22.869Z,300
2018-01-24T13:36:22.883Z,280
2018-01-24T13:37:22.905Z,290
2018-01-24T13:38:22.809Z,255
2018-01-24T13:39:22.309Z,245
2018-01-24T13:40:22.781Z,235
2018-01-24T13:41:22.513Z,225
2018-01-24T13:42:22.734Z,225
2018-01-24T13:43:22.726Z,230
2018-01-24T13:44:22.702Z,225
2018-01-24T13:45:22.687Z,250
2018-01-24T13:46:22.674Z,260
2018-01-24T13:47:22.406Z,250
2018-01-24T13:48:22.390Z,240
2018-01-24T13:49:22.622Z,250
2018-01-24T13:50:22.599Z,250
2018-01-24T13:51:22.588Z,240
2018-01-24T13:52:22.561Z,285
2018-01-24T13:53:22.542Z,275
2018-01-24T13:54:22.276Z,285
2018-01-24T13:55:22.258Z,275
2018-01-24T13:56:22.481Z,270
2018-01-24T13:57:22.215Z,275
2018-01-24T13:58:22.204Z,265
2018-01-24T13:59:22.181Z,260
2018-01-24T14:00:22.412Z,260
2018-01-24T14:01:22.147Z,310
2018-01-24T14:02:22.131Z,355
2018-01-24T14:03:22.353Z,360
2018-01-24T14:04:22.338Z,360
2018-01-24T14:05:22.324Z,360
2018-01-24T14:06:22.295Z,355
2018-01-24T14:07:22.282Z,350
2018-01-24T14:08:22.017Z,350
2018-01-24T14:09:22.002Z,345
2018-01-24T14:10:22.083Z,345
2018-01-24T14:11:22.207Z,340
2018-01-24T14:12:21.938Z,335
2018-01-24T14:13:21.921Z,335
2018-01-24T14:14:22.150Z,335
2018-01-24T14:15:21.635Z,335
2018-01-24T14:16:21.864Z,330
2018-01-24T14:17:21.841Z,325
2018-01-24T14:18:22.081Z,320
2018-01-24T14:19:22.085Z,315